createdAt,value
2022-09-20T00:01:45.058Z,10.05
2022-09-20T00:04:16.356Z,10.23
2022-09-20T00:06:48.365Z,8.65
2022-09-20T00:09:23.549Z,11.35
2022-09-20T00:11:55.814Z,9.82
2022-09-20T00:14:26.884Z,9.82
2022-09-20T00:16:58.331Z,7.90
2022-09-20T00:19:32.854Z,9.77
2022-09-20T00:22:02.452Z,11.32
2022-09-20T00:24:37.082Z,10.65
2022-09-20T00:27:07.599Z,8.75
2022-09-20T00:29:36.510Z,8.93
2022-09-20T00:32:06.783Z,7.68
2022-09-20T00:34:53.344Z,6.43
2022-09-20T00:37:26.225Z,8.52
2022-09-20T00:40:01.697Z,8.75
2022-09-20T00:42:33.954Z,12.55
2022-09-20T00:45:08.400Z,10.10
2022-09-20T00:47:48.568Z,9.57
2022-09-20T00:50:33.461Z,9.05
2022-09-20T00:53:10.395Z,10.50
2022-09-20T00:55:50.564Z,9.50
2022-09-20T00:58:24.257Z,11.05
2022-09-20T01:00:57.579Z,11.57
2022-09-20T01:03:34.840Z,10.80
2022-09-20T01:06:10.985Z,9.10
2022-09-20T01:08:42.767Z,11.23
2022-09-20T01:35:08.054Z,10.32
2022-09-20T01:41:58.379Z,8.57
2022-09-20T01:52:31.565Z,13.52
2022-09-20T01:56:25.652Z,11.85
2022-09-20T01:59:47.782Z,11.60
2022-09-20T02:03:27.576Z,11.38
2022-09-20T02:07:04.023Z,11.02
2022-09-20T02:10:26.887Z,9.10
2022-09-20T02:13:24.013Z,16.15
2022-09-20T02:16:35.531Z,12.07
2022-09-20T02:19:42.183Z,9.68
2022-09-20T02:22:32.443Z,10.55
2022-09-20T02:25:23.107Z,12.00
2022-09-20T02:28:52.998Z,9.77
2022-09-20T02:32:03.608Z,8.90
2022-09-20T02:35:19.560Z,12.57
2022-09-20T02:38:13.142Z,11.05
2022-09-20T02:41:56.944Z,10.23
2022-09-20T02:45:13.843Z,9.55
2022-09-20T02:48:05.057Z,9.50
2022-09-20T02:50:52.168Z,10.95
2022-09-20T02:56:59.301Z,10.32
2022-09-20T03:00:06.404Z,10.85
2022-09-20T03:02:59.536Z,10.48
2022-09-20T03:05:53.094Z,9.75
2022-09-20T03:08:38.787Z,9.95
2022-09-20T03:11:19.844Z,13.10
2022-09-20T03:14:23.257Z,9.77
2022-09-20T03:17:17.236Z,11.02
2022-09-20T03:20:12.935Z,10.25
2022-09-20T03:23:00.387Z,13.75
2022-09-20T03:25:46.730Z,10.10
2022-09-20T03:32:35.879Z,12.73
2022-09-20T03:35:27.305Z,9.43
2022-09-20T03:38:28.424Z,8.77
2022-09-20T03:41:36.225Z,9.20
2022-09-20T03:44:39.196Z,10.93
2022-09-20T03:47:26.790Z,9.45
2022-09-20T03:50:58.774Z,8.57
2022-09-20T03:54:16.706Z,10.80
2022-09-20T03:57:44.885Z,8.80
2022-09-20T04:00:25.290Z,9.90
2022-09-20T04:03:38.846Z,7.70
2022-09-20T04:07:25.049Z,8.13
2022-09-20T04:10:17.626Z,6.80
2022-09-20T04:13:02.985Z,9.15
2022-09-20T04:15:40.253Z,7.47
2022-09-20T04:33:01.377Z,9.60
2022-09-20T04:40:10.610Z,8.77
2022-09-20T04:59:17.691Z,10.80
2022-09-20T05:03:18.090Z,8.98
2022-09-20T05:14:55.704Z,8.65
2022-09-20T05:17:44.641Z,9.93
2022-09-20T05:20:44.783Z,11.45
2022-09-20T05:23:41.755Z,9.02
2022-09-20T05:26:20.593Z,10.05
2022-09-20T05:28:59.351Z,11.82
2022-09-20T05:34:59.800Z,10.00
2022-09-20T05:51:23.430Z,11.50
2022-09-20T06:03:14.158Z,10.05
2022-09-20T06:05:57.678Z,12.95
2022-09-20T06:09:02.902Z,12.35
2022-09-20T06:12:17.620Z,9.93
2022-09-20T06:15:00.231Z,9.98
2022-09-20T06:17:34.496Z,8.25
2022-09-20T06:20:28.371Z,7.90
2022-09-20T06:23:00.379Z,7.25
2022-09-20T06:26:00.388Z,11.00
2022-09-20T06:37:45.560Z,12.40
2022-09-20T06:40:51.549Z,8.68
2022-09-20T06:43:22.567Z,11.52
2022-09-20T06:45:52.540Z,10.88
2022-09-20T06:48:23.733Z,9.02
2022-09-20T06:51:02.529Z,10.50
2022-09-20T06:53:33.890Z,11.60
2022-09-20T06:56:05.967Z,12.48
2022-09-20T06:58:41.536Z,11.02
2022-09-20T07:01:11.459Z,8.82
2022-09-20T07:03:41.756Z,9.15
2022-09-20T07:06:11.710Z,11.55
2022-09-20T07:08:40.193Z,7.50
2022-09-20T07:11:29.338Z,7.93
2022-09-20T07:13:59.624Z,8.45
2022-09-20T07:16:28.660Z,8.63
2022-09-20T07:18:58.002Z,9.77
2022-09-20T07:21:34.203Z,6.97
2022-09-20T07:27:46.993Z,10.25
2022-09-20T07:30:30.931Z,8.95
2022-09-20T07:36:41.559Z,11.35
2022-09-20T07:43:03.343Z,8.15
2022-09-20T07:49:12.310Z,10.23
2022-09-20T08:02:59.088Z,7.03
2022-09-20T08:22:21.101Z,6.60
2022-09-20T08:25:35.824Z,7.88
2022-09-20T08:28:39.446Z,6.93
2022-09-20T08:31:37.159Z,8.00
2022-09-20T08:42:09.827Z,7.93
2022-09-20T08:46:13.249Z,6.60
2022-09-20T08:59:04.010Z,8.88
2022-09-20T09:02:24.294Z,6.90
2022-09-20T09:05:29.632Z,8.63
2022-09-20T09:11:21.180Z,7.85
2022-09-20T09:18:41.111Z,10.52
2022-09-20T09:21:44.809Z,6.40
2022-09-20T09:24:41.800Z,8.05
2022-09-20T09:28:41.143Z,7.00
2022-09-20T09:32:18.801Z,7.93
2022-09-20T09:36:04.344Z,9.90
2022-09-20T09:39:03.376Z,7.05
2022-09-20T09:42:33.215Z,7.45
2022-09-20T09:45:47.927Z,8.15
2022-09-20T09:49:35.554Z,9.82
2022-09-20T10:00:06.256Z,7.28
2022-09-20T10:04:14.482Z,6.57
2022-09-20T10:07:16.896Z,6.05
2022-09-20T10:10:57.830Z,7.10
2022-09-20T10:18:09.442Z,7.20
2022-09-20T10:21:53.627Z,8.27
2022-09-20T10:29:02.409Z,8.02
2022-09-20T10:55:20.450Z,7.65
2022-09-20T11:44:13.578Z,4.30
2022-09-20T11:47:07.935Z,7.10
2022-09-20T11:50:54.178Z,8.27
2022-09-20T12:18:20.094Z,7.00
2022-09-20T12:21:29.415Z,4.35
2022-09-20T12:24:45.147Z,4.28
2022-09-20T13:13:51.105Z,5.95
2022-09-20T13:16:33.554Z,6.55
2022-09-20T13:19:10.337Z,4.43
2022-09-20T13:21:58.422Z,6.18
2022-09-20T13:24:33.985Z,6.43
2022-09-20T13:27:38.585Z,8.02
2022-09-20T13:30:21.090Z,4.75
2022-09-20T13:32:52.362Z,5.82
2022-09-20T13:35:29.536Z,6.25
2022-09-20T13:38:05.146Z,7.95
2022-09-20T13:40:40.980Z,7.00
2022-09-20T13:43:25.993Z,6.35
2022-09-20T13:45:58.087Z,4.68
2022-09-20T13:48:53.292Z,5.85
2022-09-20T13:51:26.829Z,4.97
2022-09-20T13:53:57.422Z,5.15
2022-09-20T13:56:34.144Z,7.43
2022-09-20T13:59:06.844Z,4.03
2022-09-20T14:01:38.519Z,3.50
2022-09-20T14:04:16.054Z,6.20
2022-09-20T14:06:45.846Z,5.43
2022-09-20T14:16:09.595Z,4.72
2022-09-20T14:18:44.508Z,6.70
2022-09-20T14:21:40.203Z,2.60
2022-09-20T14:28:31.424Z,6.18
2022-09-20T14:31:19.172Z,4.80
2022-09-20T14:34:47.938Z,4.82
2022-09-20T14:42:23.106Z,5.70
2022-09-20T14:44:58.978Z,5.60
2022-09-20T14:47:35.478Z,5.78
2022-09-20T14:50:12.712Z,5.47
2022-09-20T14:53:18.482Z,4.78
2022-09-20T14:56:15.442Z,4.13
2022-09-20T15:00:00.554Z,6.70
2022-09-20T15:03:25.728Z,6.30
2022-09-20T15:41:15.855Z,4.35
2022-09-20T15:53:35.055Z,5.88
2022-09-20T16:01:12.063Z,5.18
2022-09-20T16:04:30.086Z,3.92
2022-09-20T16:07:09.545Z,3.78
2022-09-20T16:10:32.603Z,3.58
2022-09-20T16:13:19.871Z,4.05
2022-09-20T16:15:57.083Z,5.05
2022-09-20T16:18:43.999Z,2.92
2022-09-20T16:21:19.310Z,5.57
2022-09-20T16:24:05.736Z,8.48
2022-09-20T16:26:39.105Z,4.38
2022-09-20T16:29:08.620Z,4.88
2022-09-20T16:32:04.062Z,5.15
2022-09-20T16:35:02.641Z,4.43
2022-09-20T16:54:05.860Z,4.72
2022-09-20T16:56:52.094Z,3.78
2022-09-20T16:59:25.024Z,4.40
2022-09-20T17:01:55.436Z,5.55
2022-09-20T17:04:24.798Z,7.15
2022-09-20T17:06:54.948Z,2.75
2022-09-20T17:09:27.071Z,3.10
2022-09-20T17:11:56.100Z,4.85
2022-09-20T17:14:25.920Z,6.15
2022-09-20T17:16:56.444Z,2.13
2022-09-20T17:19:26.564Z,5.32
2022-09-20T17:21:57.281Z,4.43
2022-09-20T17:24:29.164Z,6.25
2022-09-20T17:27:13.451Z,5.05
2022-09-20T17:30:03.780Z,5.03
2022-09-20T17:32:49.041Z,5.03
2022-09-20T17:35:28.723Z,5.63
2022-09-20T17:38:22.104Z,4.82
2022-09-20T17:44:31.993Z,6.75
2022-09-20T17:51:15.124Z,5.55
2022-09-20T17:54:14.500Z,5.38
2022-09-20T18:00:16.474Z,4.43
2022-09-20T18:06:27.809Z,5.00
2022-09-20T18:12:25.510Z,5.03
2022-09-20T18:15:35.345Z,8.45
2022-09-20T18:21:41.525Z,4.70
2022-09-20T18:24:12.662Z,6.40
2022-09-20T18:34:29.094Z,6.95
2022-09-20T18:38:16.101Z,5.93
2022-09-20T18:45:09.836Z,8.55
2022-09-20T18:47:43.853Z,8.23
2022-09-20T18:50:29.738Z,5.90
2022-09-20T18:53:03.798Z,7.18
2022-09-20T18:55:35.893Z,5.10
2022-09-20T18:58:06.033Z,8.60
2022-09-20T19:00:43.829Z,7.85
2022-09-20T19:03:22.037Z,5.82
2022-09-20T19:06:03.718Z,6.28
2022-09-20T19:08:39.529Z,9.73
2022-09-20T19:11:13.458Z,7.95
2022-09-20T19:13:53.932Z,6.60
2022-09-20T19:16:30.667Z,8.20
2022-09-20T19:19:23.393Z,8.63
2022-09-20T19:22:00.582Z,9.45
2022-09-20T19:25:04.478Z,8.90
2022-09-20T19:27:33.889Z,8.45
2022-09-20T19:30:02.948Z,8.85
2022-09-20T19:32:37.466Z,9.82
2022-09-20T19:35:07.520Z,7.97
2022-09-20T19:37:49.887Z,7.72
2022-09-20T19:40:35.941Z,8.82
2022-09-20T19:44:32.061Z,11.80
2022-09-20T20:00:33.129Z,7.97
2022-09-20T20:12:26.304Z,7.45
2022-09-20T20:24:00.238Z,9.93
2022-09-20T20:26:29.769Z,10.00
2022-09-20T20:28:58.377Z,8.45
2022-09-20T20:31:26.983Z,6.47
2022-09-20T20:33:55.972Z,10.07
2022-09-20T20:36:24.562Z,7.43
2022-09-20T20:38:55.199Z,7.95
2022-09-20T20:41:23.774Z,5.57
2022-09-20T20:43:56.117Z,7.13
2022-09-20T20:46:25.833Z,6.70
2022-09-20T20:48:54.308Z,8.05
2022-09-20T20:51:24.311Z,9.93
2022-09-20T20:53:55.695Z,10.55
2022-09-20T20:56:26.997Z,9.85
2022-09-20T20:58:57.733Z,13.00
2022-09-20T21:01:29.076Z,14.02
2022-09-20T21:03:58.581Z,15.05
2022-09-20T21:06:30.785Z,11.35
2022-09-20T21:09:00.537Z,10.13
2022-09-20T21:11:31.186Z,9.95
2022-09-20T21:14:02.099Z,11.05
2022-09-20T21:16:35.730Z,8.63
2022-09-20T21:19:05.305Z,10.80
2022-09-20T21:21:36.453Z,14.50
2022-09-20T21:24:08.482Z,11.55
2022-09-20T21:26:38.200Z,17.77
2022-09-20T21:29:08.402Z,14.98
2022-09-20T21:31:39.155Z,17.05
2022-09-20T21:34:08.279Z,15.07
2022-09-20T21:36:37.808Z,14.82
2022-09-20T21:39:07.801Z,13.73
2022-09-20T21:41:38.671Z,16.63
2022-09-20T21:44:09.935Z,13.02
2022-09-20T21:46:40.508Z,13.20
2022-09-20T21:49:11.270Z,14.13
2022-09-20T21:51:42.759Z,14.88
2022-09-20T21:54:12.825Z,11.43
2022-09-20T21:56:41.866Z,10.38
2022-09-20T21:59:20.586Z,11.20
2022-09-20T22:01:51.984Z,11.35
2022-09-20T22:04:29.542Z,12.30
2022-09-20T22:07:05.713Z,11.68
2022-09-20T22:09:45.633Z,10.52
2022-09-20T22:12:16.559Z,9.75
2022-09-20T22:14:48.428Z,12.10
2022-09-20T22:17:34.266Z,11.27
2022-09-20T22:20:19.054Z,11.43
2022-09-20T22:23:00.131Z,10.20
2022-09-20T22:25:36.643Z,10.52
2022-09-20T22:28:07.832Z,9.57
2022-09-20T22:30:39.470Z,12.10
2022-09-20T22:33:14.880Z,10.68
2022-09-20T22:35:57.753Z,12.93
2022-09-20T22:38:27.722Z,11.15
2022-09-20T22:41:01.972Z,10.90
2022-09-20T22:43:42.587Z,12.20
2022-09-20T22:46:14.565Z,10.95
2022-09-20T22:49:09.506Z,10.75
2022-09-20T22:51:45.224Z,9.98
2022-09-20T22:54:19.813Z,13.73
2022-09-20T22:56:59.760Z,10.93
2022-09-20T22:59:43.723Z,10.80
2022-09-20T23:02:25.808Z,14.00
2022-09-20T23:05:13.364Z,11.13
2022-09-20T23:11:07.910Z,10.40
2022-09-20T23:13:40.964Z,10.60
2022-09-20T23:16:26.745Z,8.98
2022-09-20T23:19:05.195Z,9.70
2022-09-20T23:21:50.732Z,11.93
2022-09-20T23:24:41.410Z,10.70
2022-09-20T23:27:25.473Z,10.85
2022-09-20T23:30:16.546Z,8.70
2022-09-20T23:32:59.415Z,10.40
2022-09-20T23:35:39.460Z,9.43
2022-09-20T23:38:19.389Z,9.95
2022-09-20T23:40:55.653Z,10.70
2022-09-20T23:46:19.533Z,10.93
2022-09-20T23:48:54.302Z,10.90
2022-09-20T23:54:32.198Z,9.88
2022-09-20T23:57:24.683Z,9.00
